Time;durP1;ratioP1;P1;durP2;ratioP2;P2;SDS_P1;SDS_P2;PMS_P1;PMS_P2;Temp;Humidity;BMP_temperature;BMP_pressure;BME280_temperature;BME280_humidity;BME280_pressure;Samples;Min_cycle;Max_cycle;Signal;HPM_P1;HPM_P2
2023/07/24 00:00:18;;;;;;;4.28;3.08;;;;;;;17.02;100.00;100414.75;6216925;23;20004;-69
2023/07/24 00:02:44;;;;;;;5.32;3.33;;;;;;;17.03;100.00;100416.47;6241743;23;20381;-68
2023/07/24 00:05:10;;;;;;;4.28;2.80;;;;;;;17.02;100.00;100417.38;6192714;23;20004;-68
2023/07/24 00:07:35;;;;;;;6.15;3.25;;;;;;;17.00;100.00;100416.59;6216744;23;20015;-68
2023/07/24 00:10:01;;;;;;;3.63;2.85;;;;;;;16.95;100.00;100409.72;6216944;23;20016;-68
2023/07/24 00:12:27;;;;;;;5.03;2.85;;;;;;;16.97;100.00;100410.50;6167919;23;20011;-68
2023/07/24 00:14:53;;;;;;;3.28;2.97;;;;;;;17.01;100.00;100405.06;6193667;23;20381;-68
2023/07/24 00:17:18;;;;;;;4.78;3.13;;;;;;;17.01;100.00;100407.72;6217998;23;20492;-68
2023/07/24 00:19:44;;;;;;;4.22;3.08;;;;;;;17.02;100.00;100406.78;6218770;23;20126;-68
2023/07/24 00:22:09;;;;;;;4.50;2.97;;;;;;;17.01;100.00;100402.41;6218342;23;20012;-68
2023/07/24 00:24:34;;;;;;;4.57;2.90;;;;;;;17.02;100.00;100396.22;6167908;23;20039;-68
2023/07/24 00:27:00;;;;;;;4.93;3.25;;;;;;;17.03;100.00;100395.28;6218697;23;20012;-68
2023/07/24 00:29:25;;;;;;;3.83;3.20;;;;;;;17.03;100.00;100392.63;6218601;23;20062;-68
2023/07/24 00:31:51;;;;;;;4.70;3.13;;;;;;;17.02;100.00;100390.91;6193869;23;20015;-68
2023/07/24 00:34:16;;;;;;;5.05;3.17;;;;;;;17.01;100.00;100384.78;6218572;22;20414;-68
2023/07/24 00:36:42;;;;;;;4.35;3.25;;;;;;;16.99;100.00;100378.69;6198740;22;20077;-68
2023/07/24 00:39:07;;;;;;;5.00;3.35;;;;;;;17.02;100.00;100385.63;6197781;22;20011;-68
2023/07/24 00:41:33;;;;;;;5.32;3.75;;;;;;;17.00;100.00;100376.91;6223780;22;20035;-69
2023/07/24 00:43:58;;;;;;;7.50;4.20;;;;;;;16.97;100.00;100368.16;6223427;22;20049;-68
2023/07/24 00:46:24;;;;;;;6.95;4.10;;;;;;;16.95;100.00;100364.75;6198573;22;20012;-68
2023/07/24 00:48:51;;;;;;;5.90;4.13;;;;;;;16.94;100.00;100367.47;6222527;22;20043;-68
2023/07/24 00:51:17;;;;;;;7.97;4.10;;;;;;;16.92;100.00;100361.34;6198344;22;20015;-68
2023/07/24 00:53:43;;;;;;;6.18;4.10;;;;;;;16.92;100.00;100358.72;6222842;22;20004;-68
2023/07/24 00:56:09;;;;;;;5.55;3.42;;;;;;;16.90;100.00;100357.94;6197810;22;20008;-68
2023/07/24 00:58:38;;;;;;;7.28;4.30;;;;;;;16.89;100.00;100357.06;6223229;22;20061;-69
2023/07/24 01:01:04;;;;;;;6.50;4.07;;;;;;;16.89;100.00;100356.22;6222511;22;20041;-68
2023/07/24 01:03:34;;;;;;;5.68;3.65;;;;;;;16.88;100.00;100355.38;6247034;22;20031;-68
2023/07/24 01:06:03;;;;;;;4.93;3.63;;;;;;;16.86;100.00;100349.22;6222395;22;20027;-68
2023/07/24 01:08:29;;;;;;;6.05;4.20;;;;;;;16.83;100.00;100344.09;6247416;22;20480;-68
2023/07/24 01:11:02;;;;;;;5.88;3.88;;;;;;;16.84;100.00;100351.09;6196935;22;20046;-68
2023/07/24 01:13:36;;;;;;;7.50;4.10;;;;;;;16.83;100.00;100344.09;6246986;22;20011;-68
2023/07/24 01:16:15;;;;;;;5.82;3.95;;;;;;;16.85;100.00;100328.13;6246709;22;20010;-68
2023/07/24 01:18:43;;;;;;;6.70;3.90;;;;;;;16.82;100.00;100329.13;6246592;22;20003;-68
2023/07/24 01:21:10;;;;;;;8.80;4.80;;;;;;;16.83;100.00;100327.34;6247056;22;20011;-68
2023/07/24 01:23:46;;;;;;;6.32;3.78;;;;;;;16.83;100.00;100333.50;6247295;22;20445;-68
2023/07/24 01:26:12;;;;;;;6.68;4.43;;;;;;;16.81;100.00;100319.50;6247040;22;20014;-68
2023/07/24 01:28:39;;;;;;;6.45;4.47;;;;;;;16.83;100.00;100322.91;6222743;22;20021;-68
2023/07/24 01:31:05;;;;;;;6.60;4.72;;;;;;;16.83;100.00;100330.84;6221648;22;20008;-68
2023/07/24 01:33:33;;;;;;;8.38;5.15;;;;;;;16.81;100.00;100319.50;6222111;22;20076;-68
2023/07/24 01:36:00;;;;;;;8.50;4.90;;;;;;;16.79;100.00;100308.09;6197784;22;20020;-68
2023/07/24 01:38:27;;;;;;;7.05;4.72;;;;;;;16.79;100.00;100316.03;6222219;22;20059;-68
2023/07/24 01:40:53;;;;;;;7.07;4.88;;;;;;;16.81;100.00;100311.56;6196120;22;20011;-68
2023/07/24 01:43:19;;;;;;;6.68;5.18;;;;;;;16.82;100.00;100304.47;6222777;22;20333;-68
2023/07/24 01:45:44;;;;;;;6.45;5.13;;;;;;;16.81;100.00;100300.97;6222343;22;20008;-68
2023/07/24 01:48:10;;;;;;;8.02;5.47;;;;;;;16.84;100.00;100311.41;6196194;22;20393;-68
2023/07/24 01:50:36;;;;;;;8.52;5.43;;;;;;;16.85;100.00;100313.13;6197397;22;20037;-69
2023/07/24 01:53:01;;;;;;;8.63;6.38;;;;;;;16.84;100.00;100315.81;6196844;22;20034;-70
2023/07/24 01:55:26;;;;;;;14.07;6.20;;;;;;;16.85;100.00;100302.56;6196808;22;20069;-70
2023/07/24 01:57:52;;;;;;;8.13;5.70;;;;;;;16.84;100.00;100292.88;6197443;22;20011;-70
2023/07/24 02:00:18;;;;;;;9.05;5.60;;;;;;;16.82;100.00;100286.78;6196128;22;20004;-70
2023/07/24 02:02:43;;;;;;;8.13;6.20;;;;;;;16.81;100.00;100287.75;6196745;22;20343;-69
2023/07/24 02:05:09;;;;;;;8.55;5.65;;;;;;;16.80;100.00;100288.66;6197185;22;20380;-69
2023/07/24 02:07:34;;;;;;;8.20;5.60;;;;;;;16.78;100.00;100280.81;6222741;22;20418;-69
2023/07/24 02:10:00;;;;;;;6.65;5.32;;;;;;;16.79;100.00;100284.28;6247063;22;20008;-69
2023/07/24 02:12:25;;;;;;;7.05;5.45;;;;;;;16.80;100.00;100271.00;6221221;22;20008;-69
2023/07/24 02:14:51;;;;;;;7.80;5.20;;;;;;;16.79;100.00;100276.34;6222803;22;20014;-69
2023/07/24 02:17:20;;;;;;;7.43;5.60;;;;;;;16.78;100.00;100272.00;6222721;22;20457;-69
2023/07/24 02:19:45;;;;;;;8.57;6.15;;;;;;;16.78;100.00;100269.38;6222775;22;20007;-69
2023/07/24 02:22:11;;;;;;;7.10;5.00;;;;;;;16.80;100.00;100265.69;6222886;22;20014;-69
2023/07/24 02:24:36;;;;;;;6.10;4.65;;;;;;;16.79;100.00;100261.34;6222223;22;20008;-69
2023/07/24 02:27:02;;;;;;;5.25;4.20;;;;;;;16.82;100.00;100265.63;6222783;22;20089;-69
2023/07/24 02:29:28;;;;;;;5.28;3.80;;;;;;;16.82;100.00;100262.13;6197397;22;20365;-69
2023/07/24 02:31:54;;;;;;;4.40;3.80;;;;;;;16.84;100.00;100262.91;6222669;22;20057;-69
2023/07/24 02:34:24;;;;;;;4.97;3.38;;;;;;;16.85;100.00;100257.56;6222112;22;20004;-69
2023/07/24 02:36:50;;;;;;;6.20;3.60;;;;;;;16.86;100.00;100261.91;6248250;22;20090;-69
2023/07/24 02:39:15;;;;;;;3.80;3.13;;;;;;;16.91;100.00;100254.66;6220996;22;20070;-69
2023/07/24 02:41:40;;;;;;;5.32;3.97;;;;;;;16.90;100.00;100265.31;6197285;22;20073;-69
2023/07/24 02:44:06;;;;;;;4.93;3.70;;;;;;;16.90;100.00;100250.28;6220943;22;20087;-69
2023/07/24 02:46:31;;;;;;;5.07;3.97;;;;;;;16.92;100.00;100253.72;6197508;22;20542;-69
2023/07/24 02:48:57;;;;;;;6.18;3.92;;;;;;;16.92;100.00;100255.50;6196860;22;20003;-69
2023/07/24 02:51:22;;;;;;;5.68;5.00;;;;;;;16.91;100.00;100253.78;6222003;22;20027;-69
2023/07/24 02:53:47;;;;;;;6.95;5.25;;;;;;;16.92;100.00;100261.66;6220889;22;20008;-69
2023/07/24 02:56:13;;;;;;;6.88;5.60;;;;;;;16.93;100.00;100270.47;6222078;22;20018;-69
2023/07/24 02:58:38;;;;;;;6.80;4.90;;;;;;;16.93;100.00;100270.47;6222700;22;20087;-70
2023/07/24 03:01:06;;;;;;;8.30;5.57;;;;;;;16.89;100.00;100245.91;6224406;22;20011;-70
2023/07/24 03:03:32;;;;;;;4.80;4.07;;;;;;;16.85;100.00;100231.09;6223442;22;20015;-70
2023/07/24 03:05:58;;;;;;;4.25;3.58;;;;;;;16.82;100.00;100257.69;6249109;22;20000;-70
2023/07/24 03:08:23;;;;;;;5.22;3.97;;;;;;;16.87;100.00;100257.50;6223635;22;20011;-70
2023/07/24 03:10:49;;;;;;;5.80;4.13;;;;;;;16.84;100.00;100263.78;6223154;22;20011;-70
2023/07/24 03:13:14;;;;;;;6.65;4.32;;;;;;;16.83;100.00;100262.06;6198287;22;20455;-70
2023/07/24 03:15:40;;;;;;;5.90;3.70;;;;;;;16.81;100.00;100263.94;6248750;22;20409;-69
2023/07/24 03:18:05;;;;;;;5.80;3.92;;;;;;;16.80;100.00;100262.19;6247609;22;20433;-70
2023/07/24 03:20:31;;;;;;;6.60;4.00;;;;;;;16.79;100.00;100244.59;6223415;22;20026;-70
2023/07/24 03:22:56;;;;;;;6.30;3.65;;;;;;;16.78;100.00;100238.47;6248839;22;20035;-69
2023/07/24 03:25:22;;;;;;;4.78;3.40;;;;;;;16.71;100.00;100226.47;6222486;22;20003;-70
2023/07/24 03:27:47;;;;;;;5.20;4.22;;;;;;;16.71;100.00;100220.31;6223497;22;20012;-70
2023/07/24 03:30:13;;;;;;;5.13;4.13;;;;;;;16.69;100.00;100224.81;6247469;22;20011;-69
2023/07/24 03:32:38;;;;;;;7.20;4.90;;;;;;;16.65;100.00;100252.34;6223926;22;20021;-70
2023/07/24 03:35:05;;;;;;;6.00;4.63;;;;;;;16.59;100.00;100259.63;6222285;22;20050;-71
2023/07/24 03:37:31;;;;;;;6.53;4.15;;;;;;;16.49;100.00;100271.53;6223833;22;20012;-70
2023/07/24 03:39:56;;;;;;;5.25;3.85;;;;;;;16.40;100.00;100254.31;6197661;22;20018;-70
2023/07/24 03:42:27;;;;;;;5.78;3.65;;;;;;;16.36;100.00;100243.94;6198298;22;20448;-70
2023/07/24 03:44:52;;;;;;;;;;;;;;;16.50;100.00;100240.69;6249143;22;20302;-70
2023/07/24 03:47:18;;;;;;;4.53;3.60;;;;;;;16.24;100.00;100248.00;6247997;22;19922;-70
2023/07/24 03:49:43;;;;;;;4.05;3.65;;;;;;;16.19;100.00;100240.28;6223708;22;20007;-70
2023/07/24 03:52:08;;;;;;;5.47;3.67;;;;;;;16.17;100.00;100231.56;6223138;22;20082;-70
2023/07/24 03:54:34;;;;;;;4.18;3.40;;;;;;;16.19;100.00;100232.38;6247613;22;20011;-70
2023/07/24 03:56:59;;;;;;;4.80;3.83;;;;;;;16.13;100.00;100235.25;6223175;22;20007;-70
2023/07/24 03:59:25;;;;;;;4.13;3.63;;;;;;;16.13;100.00;100232.63;6246822;22;20085;-70
2023/07/24 04:01:50;;;;;;;4.60;3.58;;;;;;;16.11;100.00;100237.97;6197231;22;20012;-70
2023/07/24 04:04:16;;;;;;;5.18;4.18;;;;;;;16.10;100.00;100240.69;6197048;22;20066;-70
2023/07/24 04:06:41;;;;;;;5.70;3.47;;;;;;;16.12;100.00;100244.13;6197867;22;20008;-70
2023/07/24 04:09:07;;;;;;;4.38;3.35;;;;;;;16.11;100.00;100243.25;6221213;22;20018;-70
2023/07/24 04:11:32;;;;;;;4.38;3.60;;;;;;;16.10;100.00;100244.22;6248924;22;20319;-70
2023/07/24 04:13:57;;;;;;;5.20;3.53;;;;;;;16.11;100.00;100242.41;6198371;22;20018;-70
2023/07/24 04:16:23;;;;;;;4.35;3.72;;;;;;;16.09;100.00;100244.25;6223815;22;20345;-70
2023/07/24 04:18:48;;;;;;;4.13;3.75;;;;;;;16.10;100.00;100252.13;6197983;22;20073;-70
2023/07/24 04:21:14;;;;;;;4.18;3.60;;;;;;;16.08;100.00;100248.69;6223100;22;20015;-70
2023/07/24 04:23:39;;;;;;;5.72;3.85;;;;;;;16.05;100.00;100259.41;6223416;22;20107;-70
2023/07/24 04:26:04;;;;;;;5.20;3.97;;;;;;;16.06;100.00;100262.88;6196120;22;20434;-70
2023/07/24 04:28:30;;;;;;;5.85;4.50;;;;;;;16.02;100.00;100267.47;6222286;22;20318;-70
2023/07/24 04:31:00;;;;;;;5.13;4.45;;;;;;;16.02;100.00;100256.00;6247969;22;20012;-71
2023/07/24 04:33:27;;;;;;;6.53;4.45;;;;;;;16.03;100.00;100252.47;6247611;22;20018;-71
2023/07/24 04:35:53;;;;;;;6.88;4.40;;;;;;;15.99;100.00;100245.59;6197774;22;20417;-70
2023/07/24 04:38:19;;;;;;;6.10;4.53;;;;;;;16.01;100.00;100246.41;6222231;22;20311;-70
2023/07/24 04:40:45;;;;;;;8.77;5.20;;;;;;;15.98;100.00;100257.09;6220281;22;20026;-70
2023/07/24 04:43:10;;;;;;;5.05;4.15;;;;;;;16.02;100.00;100256.91;6223930;22;20016;-71
2023/07/24 04:45:36;;;;;;;5.72;4.60;;;;;;;16.05;100.00;100261.19;6223312;22;20054;-71
2023/07/24 04:48:01;;;;;;;5.72;4.28;;;;;;;16.03;100.00;100263.03;6195646;22;20090;-71
2023/07/24 04:50:27;;;;;;;4.88;4.35;;;;;;;15.99;100.00;100261.44;6247554;22;20007;-71
2023/07/24 04:52:52;;;;;;;9.27;5.75;;;;;;;16.03;100.00;100260.38;6198099;22;20014;-71
2023/07/24 04:55:18;;;;;;;5.82;4.35;;;;;;;16.10;100.00;100259.19;6197478;22;20008;-70
2023/07/24 04:57:43;;;;;;;5.97;4.47;;;;;;;16.12;100.00;100260.00;6197716;22;20016;-71
2023/07/24 05:00:09;;;;;;;5.53;4.70;;;;;;;16.11;100.00;100250.34;6221898;22;20114;-71
2023/07/24 05:02:34;;;;;;;7.28;5.38;;;;;;;16.10;100.00;100251.25;6197161;22;20378;-71
2023/07/24 05:05:00;;;;;;;6.28;5.30;;;;;;;16.12;100.00;100260.00;6222825;22;20026;-69
2023/07/24 05:07:25;;;;;;;6.25;5.43;;;;;;;16.12;100.00;100260.00;6222839;22;20014;-69
2023/07/24 05:09:51;;;;;;;6.78;5.20;;;;;;;16.10;100.00;100254.78;6197183;22;20018;-69
2023/07/24 05:12:16;;;;;;;6.13;5.50;;;;;;;16.14;100.00;100252.84;6221311;22;20014;-69
2023/07/24 05:14:42;;;;;;;6.07;5.43;;;;;;;16.14;100.00;100263.41;6223216;22;20004;-69
2023/07/24 05:17:07;;;;;;;6.45;5.50;;;;;;;16.14;100.00;100259.94;6197540;22;20010;-69
2023/07/24 05:19:33;;;;;;;6.22;5.63;;;;;;;16.16;100.00;100256.28;6221352;22;20007;-70
2023/07/24 05:21:59;;;;;;;6.63;6.03;;;;;;;16.20;100.00;100267.56;6223304;22;20016;-69
2023/07/24 05:24:24;;;;;;;6.50;5.10;;;;;;;16.20;100.00;100271.06;6222275;22;20425;-68
2023/07/24 05:26:52;;;;;;;5.95;5.35;;;;;;;16.16;100.00;100266.88;6221793;22;20015;-68
2023/07/24 05:29:17;;;;;;;6.38;5.78;;;;;;;16.16;100.00;100272.16;6222903;22;20007;-68
2023/07/24 05:31:43;;;;;;;6.25;5.55;;;;;;;16.19;100.00;100274.66;6221932;22;20054;-68
2023/07/24 05:34:08;;;;;;;5.85;5.22;;;;;;;16.19;100.00;100281.72;6197053;22;20326;-68
2023/07/24 05:36:34;;;;;;;7.13;5.43;;;;;;;16.21;100.00;100270.16;6215854;23;20311;-68
2023/07/24 05:38:59;;;;;;;5.28;4.78;;;;;;;16.16;100.00;100277.44;6241901;23;20085;-68
2023/07/24 05:41:24;;;;;;;4.78;4.38;;;;;;;16.15;100.00;100278.34;6192287;23;20015;-69
2023/07/24 05:43:50;;;;;;;5.47;4.90;;;;;;;16.11;100.00;100276.78;6215777;23;20016;-68
2023/07/24 05:46:15;;;;;;;5.10;4.60;;;;;;;16.05;100.00;100271.75;6217378;23;20012;-68
2023/07/24 05:48:41;;;;;;;5.40;4.65;;;;;;;16.04;100.00;100273.53;6185637;22;20372;-67
2023/07/24 05:51:25;;;;;;;5.30;4.80;;;;;;;16.08;100.00;100283.03;6183715;22;20016;-67
2023/07/24 05:53:51;;;;;;;6.57;5.90;;;;;;;16.04;100.00;100275.31;6177112;22;20047;-68
2023/07/24 06:01:26;;;;;;;9.00;6.80;;;;;;;16.25;100.00;100289.38;6269662;22;20016;-67
2023/07/24 06:33:11;;;;;;;9.38;8.48;;;;;;;16.85;100.00;100297.25;6245882;22;20044;-67
2023/07/24 06:43:22;;;;;;;5.70;5.10;;;;;;;20.92;86.42;100300.75;6268547;22;20024;-69
2023/07/24 06:45:48;;;;;;;5.82;5.25;;;;;;;20.49;85.16;100307.91;6198642;22;20425;-69
2023/07/24 06:48:13;;;;;;;5.80;5.20;;;;;;;20.00;86.86;100309.94;6197730;22;20019;-70
2023/07/24 06:50:39;;;;;;;5.13;4.63;;;;;;;19.59;87.42;100305.22;6248925;22;20407;-70
2023/07/24 06:53:04;;;;;;;5.47;4.68;;;;;;;19.10;89.02;100294.75;6249120;22;20004;-70
2023/07/24 06:55:29;;;;;;;5.88;4.95;;;;;;;18.71;90.10;100296.81;6198237;22;20329;-70
2023/07/24 06:57:55;;;;;;;6.10;5.50;;;;;;;18.40;93.43;100297.63;6199000;22;20008;-69
2023/07/24 07:00:20;;;;;;;6.15;5.55;;;;;;;18.17;94.30;100300.56;6199340;22;20007;-69
2023/07/24 07:02:46;;;;;;;6.63;5.90;;;;;;;17.91;94.84;100293.91;6248950;22;20015;-69
2023/07/24 07:05:11;;;;;;;8.38;7.40;;;;;;;17.72;96.43;100287.81;6249323;22;20015;-69
2023/07/24 07:07:37;;;;;;;7.65;6.43;;;;;;;17.65;96.79;100282.81;6199241;22;20018;-70
2023/07/24 07:10:02;;;;;;;8.23;6.78;;;;;;;17.50;97.88;100288.91;6223449;22;20091;-70
2023/07/24 07:12:28;;;;;;;8.07;6.32;;;;;;;17.47;99.42;100294.34;6224601;22;20004;-69
2023/07/24 07:14:56;;;;;;;8.23;7.43;;;;;;;17.45;98.88;100296.19;6249544;22;20011;-69
2023/07/24 07:17:22;;;;;;;9.50;7.90;;;;;;;17.39;100.00;100291.22;6198635;22;20015;-70
2023/07/24 07:19:47;;;;;;;8.07;7.28;;;;;;;17.45;100.00;100291.75;6223802;22;20007;-69
2023/07/24 07:22:12;;;;;;;8.88;7.97;;;;;;;17.40;100.00;100287.63;6248248;22;20429;-70
2023/07/24 07:24:38;;;;;;;9.35;8.45;;;;;;;17.39;100.00;100289.41;6223212;22;20087;-69
2023/07/24 07:27:04;;;;;;;9.13;8.23;;;;;;;17.44;100.00;100299.78;6249355;22;20019;-69
2023/07/24 07:29:31;;;;;;;9.80;8.18;;;;;;;17.41;100.00;100291.97;6199086;22;20014;-69
2023/07/24 07:31:56;;;;;;;9.90;8.70;;;;;;;17.43;100.00;100292.78;6200053;22;20012;-69
2023/07/24 07:34:22;;;;;;;9.60;8.00;;;;;;;17.33;99.91;100291.53;6198135;22;20004;-69
2023/07/24 07:36:47;;;;;;;8.63;7.18;;;;;;;17.19;100.00;100285.09;6249173;22;20402;-69
2023/07/24 07:39:13;;;;;;;7.30;6.40;;;;;;;17.08;100.00;100287.38;6197635;22;20004;-69
2023/07/24 07:41:39;;;;;;;6.97;6.20;;;;;;;17.07;100.00;100291.00;6199432;22;20004;-70
2023/07/24 07:44:04;;;;;;;7.68;6.82;;;;;;;17.05;100.00;100280.47;6248270;22;20087;-71
2023/07/24 07:46:30;;;;;;;7.30;5.93;;;;;;;17.02;100.00;100292.97;6224369;22;20015;-72
2023/07/24 07:48:55;;;;;;;7.32;5.95;;;;;;;17.09;100.00;100297.06;6198309;22;20433;-69
2023/07/24 07:51:20;;;;;;;7.05;6.40;;;;;;;17.18;100.00;100283.34;6198908;22;20090;-69
2023/07/24 07:53:46;;;;;;;6.80;5.40;;;;;;;17.25;100.00;100294.53;6198006;22;20448;-69
2023/07/24 07:56:11;;;;;;;5.97;5.30;;;;;;;17.31;100.00;100296.88;6223609;22;20016;-69
2023/07/24 07:58:38;;;;;;;5.80;5.20;;;;;;;17.47;100.00;100297.00;6223796;22;20014;-69
2023/07/24 08:01:09;;;;;;;5.50;4.85;;;;;;;17.81;100.00;100285.56;6223556;22;20290;-69
2023/07/24 08:03:35;;;;;;;6.60;5.07;;;;;;;18.03;97.90;100280.97;6198424;22;20046;-69
2023/07/24 08:06:00;;;;;;;6.10;5.50;;;;;;;18.34;99.23;100281.06;6248893;22;20008;-69
2023/07/24 08:08:26;;;;;;;5.53;4.63;;;;;;;18.51;97.51;100281.97;6198985;22;20003;-69
2023/07/24 08:10:51;;;;;;;3.60;3.17;;;;;;;18.50;93.52;100288.22;6248453;22;20154;-69
2023/07/24 08:13:17;;;;;;;3.85;3.47;;;;;;;18.47;92.92;100291.03;6223881;22;20010;-69
2023/07/24 08:15:42;;;;;;;4.88;3.95;;;;;;;18.26;90.79;100285.06;6198595;22;20011;-67
2023/07/24 08:18:08;;;;;;;4.55;3.85;;;;;;;18.25;92.73;100292.19;6198257;22;20008;-67
2023/07/24 08:20:38;;;;;;;5.28;3.65;;;;;;;18.39;92.85;100295.88;6223921;22;20381;-67
2023/07/24 08:23:03;;;;;;;;;;;;;;;18.77;93.36;100308.91;6249678;22;20008;-67
2023/07/24 08:25:29;;;;;;;4.57;3.83;;;;;;;18.59;89.85;100298.34;6221093;22;20009;-67
2023/07/24 08:27:54;;;;;;;4.88;4.07;;;;;;;18.55;90.32;100296.81;6222838;22;20015;-67
2023/07/24 08:30:20;;;;;;;4.80;3.95;;;;;;;18.74;93.15;100295.81;6223425;22;20050;-67
2023/07/24 08:32:45;;;;;;;6.55;4.40;;;;;;;18.91;92.20;100285.16;6198405;22;20031;-67
2023/07/24 08:35:13;;;;;;;7.05;5.47;;;;;;;19.09;92.15;100277.09;6198637;22;20447;-67
2023/07/24 08:37:42;;;;;;;5.85;5.25;;;;;;;19.02;88.25;100285.41;6248111;22;20075;-67
2023/07/24 08:40:09;;;;;;;6.05;5.35;;;;;;;19.13;89.10;100294.56;6223079;22;20095;-67
2023/07/24 08:42:35;;;;;;;8.15;5.72;;;;;;;19.11;88.46;100291.16;6247324;22;20026;-67
2023/07/24 08:45:01;;;;;;;6.85;5.65;;;;;;;19.02;87.11;100288.06;6197749;22;20496;-67
2023/07/24 08:47:27;;;;;;;6.88;6.07;;;;;;;19.13;86.26;100294.56;6222673;22;20011;-67
2023/07/24 08:49:54;;;;;;;8.40;6.50;;;;;;;19.00;85.51;100284.63;6198684;22;20034;-67
2023/07/24 08:52:19;;;;;;;7.75;6.97;;;;;;;18.93;86.55;100285.91;6223352;22;20083;-68
2023/07/24 08:54:47;;;;;;;7.72;7.03;;;;;;;18.82;88.70;100275.00;6197697;22;20432;-67
2023/07/24 08:57:13;;;;;;;8.85;7.47;;;;;;;18.77;87.80;100282.38;6248501;22;20014;-67
2023/07/24 08:59:38;;;;;;;10.20;6.50;;;;;;;18.60;87.02;100284.13;6248690;22;20014;-66
2023/07/24 09:02:05;;;;;;;7.68;6.63;;;;;;;18.44;85.92;100280.59;6198341;22;20012;-67
2023/07/24 09:04:30;;;;;;;7.88;7.07;;;;;;;18.42;88.31;100272.72;6223052;22;20323;-67
2023/07/24 09:06:58;;;;;;;8.70;7.78;;;;;;;18.47;89.76;100270.66;6248325;22;20011;-67
2023/07/24 09:09:23;;;;;;;7.97;7.03;;;;;;;18.52;87.74;100278.41;6222874;22;20023;-67
2023/07/24 09:11:51;;;;;;;8.00;7.10;;;;;;;18.69;91.16;100264.19;6247480;22;20361;-67
2023/07/24 09:14:34;;;;;;;7.88;7.18;;;;;;;18.79;89.58;100261.88;6247976;22;20024;-67
2023/07/24 09:17:08;;;;;;;9.60;6.70;;;;;;;18.92;89.00;100254.13;6223343;22;20414;-68
2023/07/24 09:19:34;;;;;;;7.65;6.28;;;;;;;18.81;88.29;100254.72;6248172;22;20003;-68
2023/07/24 09:22:10;;;;;;;6.93;6.10;;;;;;;18.92;87.08;100254.13;6223252;22;20008;-68
2023/07/24 09:24:38;;;;;;;7.20;6.50;;;;;;;18.95;87.01;100243.34;6222560;22;20004;-68
2023/07/24 09:27:07;;;;;;;7.60;6.38;;;;;;;19.00;87.15;100228.84;6248100;22;20007;-68
2023/07/24 09:29:34;;;;;;;7.78;6.47;;;;;;;19.30;89.38;100236.03;6198228;22;20015;-68
2023/07/24 09:32:00;;;;;;;7.30;6.60;;;;;;;19.60;89.68;100242.31;6223269;22;20342;-68
2023/07/24 09:34:28;;;;;;;8.00;5.75;;;;;;;19.78;86.79;100227.03;6197640;22;20008;-68
2023/07/24 09:36:53;;;;;;;7.32;5.72;;;;;;;20.06;88.31;100224.44;6199318;22;20514;-68
2023/07/24 09:39:26;;;;;;;7.18;5.55;;;;;;;20.16;84.65;100227.41;6222377;22;20090;-68
2023/07/24 09:41:52;;;;;;;7.03;5.05;;;;;;;20.16;84.92;100215.94;6223212;22;20019;-68
2023/07/24 09:44:18;;;;;;;10.38;5.53;;;;;;;20.08;83.13;100224.34;6222860;22;20020;-68
2023/07/24 09:46:44;;;;;;;6.50;5.50;;;;;;;19.86;84.27;100219.50;6248375;22;20003;-68
2023/07/24 09:49:10;;;;;;;7.43;5.82;;;;;;;19.78;83.42;100221.72;6247865;22;20007;-68
2023/07/24 09:51:40;;;;;;;6.57;5.88;;;;;;;19.60;81.14;100207.75;6222940;22;20011;-68
2023/07/24 09:54:05;;;;;;;6.63;5.95;;;;;;;19.46;82.43;100192.63;6223069;22;20008;-68
2023/07/24 09:56:32;;;;;;;6.00;4.80;;;;;;;19.34;82.92;100187.09;6248313;22;20019;-68
2023/07/24 09:59:00;;;;;;;5.40;4.32;;;;;;;19.20;82.72;100193.19;6197441;22;20007;-68
2023/07/24 10:01:27;;;;;;;6.07;4.70;;;;;;;19.16;84.56;100199.63;6247030;22;20004;-68
2023/07/24 10:03:53;;;;;;;5.10;4.45;;;;;;;19.19;85.07;100194.16;6222065;22;20011;-68
2023/07/24 10:06:20;;;;;;;4.60;4.20;;;;;;;18.94;84.57;100186.75;6198200;22;20027;-68
2023/07/24 10:08:46;;;;;;;6.10;4.50;;;;;;;19.01;84.38;100190.75;6197190;22;20011;-68
2023/07/24 10:11:13;;;;;;;6.43;4.50;;;;;;;18.86;83.27;100180.97;6249545;22;20089;-68
2023/07/24 10:13:40;;;;;;;5.90;4.90;;;;;;;18.87;85.43;100180.06;6224255;22;20451;-68
2023/07/24 10:16:06;;;;;;;5.15;4.20;;;;;;;18.87;83.79;100188.03;6249221;22;20422;-68
2023/07/24 10:18:34;;;;;;;5.35;3.88;;;;;;;18.76;82.82;100187.75;6224110;22;20008;-68
2023/07/24 10:21:02;;;;;;;5.03;3.95;;;;;;;18.69;84.18;100204.03;6224611;22;20016;-68
2023/07/24 10:23:27;;;;;;;5.50;4.60;;;;;;;18.65;86.34;100212.25;6249982;22;20090;-68
2023/07/24 10:25:53;;;;;;;4.97;4.07;;;;;;;18.73;86.50;100217.97;6248759;22;20081;-68
2023/07/24 10:28:18;;;;;;;5.97;4.35;;;;;;;18.57;85.42;100223.28;6199630;22;20432;-68
2023/07/24 10:30:44;;;;;;;6.22;4.20;;;;;;;18.49;87.49;100225.50;6224081;22;20014;-68
2023/07/24 10:33:16;;;;;;;5.40;4.90;;;;;;;18.41;85.89;100233.88;6223063;22;20007;-68
2023/07/24 10:36:08;;;;;;;7.22;4.85;;;;;;;18.45;87.00;100227.47;6249538;22;20409;-68
2023/07/24 10:38:36;;;;;;;4.32;3.75;;;;;;;18.35;85.66;100229.75;6206492;22;20459;-68
2023/07/24 10:41:03;;;;;;;5.72;5.10;;;;;;;18.28;86.77;100225.72;6249278;22;20011;-68
2023/07/24 10:43:39;;;;;;;5.03;4.40;;;;;;;18.24;87.37;100213.56;6248936;22;20019;-68
2023/07/24 10:46:04;;;;;;;5.38;3.70;;;;;;;18.23;87.26;100214.50;6250165;22;20062;-68
2023/07/24 10:48:30;;;;;;;4.60;4.20;;;;;;;18.24;88.16;100225.97;6197680;22;20370;-70
2023/07/24 10:50:55;;;;;;;3.95;3.40;;;;;;;18.21;88.22;100240.25;6199523;22;20038;-68
2023/07/24 10:53:22;;;;;;;4.63;4.10;;;;;;;18.22;87.25;100249.06;6224188;22;20018;-68
2023/07/24 10:55:52;;;;;;;4.60;4.10;;;;;;;18.13;87.10;100255.69;6276887;22;20325;-68
2023/07/24 10:58:18;;;;;;;5.22;4.32;;;;;;;18.18;87.30;100251.00;6250161;22;20076;-70
2023/07/24 11:00:47;;;;;;;6.68;4.30;;;;;;;18.23;87.80;100248.09;6277319;22;20477;-70
2023/07/24 11:03:14;;;;;;;4.38;3.97;;;;;;;18.23;89.42;100243.69;6249771;22;20443;-68
2023/07/24 11:05:44;;;;;;;5.15;4.65;;;;;;;18.32;89.28;100245.84;6224395;22;20003;-67
2023/07/24 11:08:14;;;;;;;;;;;;;;;18.61;88.51;100240.75;6249931;22;20066;-69
2023/07/24 11:10:48;;;;;;;6.18;5.55;;;;;;;18.53;88.90;100242.94;6249445;22;19941;-71
2023/07/24 11:13:15;;;;;;;5.35;4.85;;;;;;;18.56;87.33;100240.16;6250049;22;20074;-70
2023/07/24 11:15:40;;;;;;;5.22;4.72;;;;;;;18.52;85.85;100228.84;6249332;22;19996;-70
2023/07/24 11:18:08;;;;;;;5.10;4.60;;;;;;;18.65;87.39;100226.38;6199333;22;20283;-68
2023/07/24 11:20:38;;;;;;;5.40;4.90;;;;;;;18.66;85.94;100221.91;6224880;22;20004;-68
2023/07/24 11:23:03;;;;;;;6.50;5.28;;;;;;;18.72;84.62;100226.00;6249854;22;20015;-68
2023/07/24 11:25:29;;;;;;;7.60;5.80;;;;;;;18.96;87.77;100237.09;6199095;22;20426;-69
2023/07/24 11:27:55;;;;;;;6.78;5.47;;;;;;;19.01;85.93;100227.09;6224365;22;20452;-70
2023/07/24 11:30:21;;;;;;;6.40;5.40;;;;;;;19.11;86.46;100232.72;6222561;22;20012;-67
2023/07/24 11:32:48;;;;;;;6.03;5.43;;;;;;;19.08;84.02;100236.41;6249593;22;20038;-70
2023/07/24 11:35:14;;;;;;;6.65;5.97;;;;;;;19.13;84.19;100230.81;6223800;22;20008;-68
2023/07/24 11:37:40;;;;;;;6.38;5.60;;;;;;;19.21;83.79;100223.28;6199036;22;20055;-70
2023/07/24 11:40:10;;;;;;;6.30;5.70;;;;;;;19.28;82.34;100224.63;6223636;22;20010;-68
2023/07/24 11:42:45;;;;;;;7.57;6.00;;;;;;;19.34;82.78;100228.75;6224354;22;20015;-68
2023/07/24 11:45:11;;;;;;;6.50;5.90;;;;;;;19.36;82.63;100214.41;6218303;22;20018;-68
2023/07/24 11:47:50;;;;;;;6.32;5.72;;;;;;;19.55;84.04;100238.13;6249024;22;20015;-67
2023/07/24 11:50:17;;;;;;;7.35;6.65;;;;;;;19.54;82.71;100236.41;6223214;22;20037;-68
2023/07/24 11:52:55;;;;;;;7.70;7.00;;;;;;;19.59;84.69;100235.28;6223742;22;20090;-70
2023/07/24 11:55:31;;;;;;;7.85;7.05;;;;;;;19.81;84.95;100232.22;6251007;22;20010;-68
2023/07/24 11:57:58;;;;;;;6.72;6.13;;;;;;;19.76;83.62;100231.63;6249137;22;20004;-69
2023/07/24 12:00:24;;;;;;;6.25;5.65;;;;;;;19.79;82.81;100231.47;6249276;22;20011;-68